In Rescue
 
Open Full Screen Window  High Contrast Mode
September 19, 2019 4:20 PM CDT
Weather Information
Wind Direction
  ---
Wind Speed
  00 kt (0 mph)
Wind Gust
  00 kt (0 mph)
Altimeter
29.98 in
Visibility
10 SM
Temperature
27° C
81° F
Dewpoint
17° C
63° F
Humidity
54%
1hr Rain Fall
00.00 in.
24hr Rain Fall
00.00 in.
Sky Condition
Clear
VFR

METAR KPEX 192120Z AUTO 00000KT 10SM CLR 27/17 A2998 RMK AO2 T02720171

FAA Disclaimer: The data displayed is for advisory purposes only and is not to be used for flight planning or operations.